Time;durP1;ratioP1;P1;durP2;ratioP2;P2;SDS_P1;SDS_P2;PMS_P1;PMS_P2;Temp;Humidity;BMP_temperature;BMP_pressure;BME280_temperature;BME280_humidity;BME280_pressure;Samples;Min_cycle;Max_cycle;Signal;HPM_P1;HPM_P2
2022/03/10 00:01:59;;;;;;;25.63;14.20;;;;;;;1.98;42.11;96243.69;4938351;29;20184;-80
2022/03/10 00:04:25;;;;;;;24.63;14.20;;;;;;;2.07;42.10;96243.22;4938637;29;20212;-81
2022/03/10 00:06:50;;;;;;;24.10;14.27;;;;;;;2.06;42.19;96239.00;4938732;29;20192;-81
2022/03/10 00:09:22;;;;;;;25.53;14.50;;;;;;;2.13;42.66;96242.06;4939007;29;20177;-81
2022/03/10 00:11:48;;;;;;;29.43;14.80;;;;;;;2.18;43.06;96242.66;4938564;29;20263;-80
2022/03/10 00:14:13;;;;;;;32.27;16.57;;;;;;;2.20;42.84;96246.78;4938809;28;20944;-80
2022/03/10 00:16:39;;;;;;;28.20;15.57;;;;;;;2.16;43.13;96247.03;4939031;29;20188;-79
2022/03/10 00:19:04;;;;;;;29.03;16.67;;;;;;;2.27;42.82;96249.84;4923235;29;20193;-80
2022/03/10 00:21:29;;;;;;;26.03;15.20;;;;;;;2.31;42.65;96243.69;4922554;29;20202;-81
2022/03/10 00:23:55;;;;;;;28.53;15.47;;;;;;;2.45;42.43;96251.44;4954598;29;20215;-80
2022/03/10 00:26:20;;;;;;;28.67;16.03;;;;;;;2.41;42.22;96244.84;4923625;29;20195;-80
2022/03/10 00:28:45;;;;;;;26.70;15.40;;;;;;;2.39;41.93;96244.09;4939149;29;20185;-81
2022/03/10 00:31:11;;;;;;;28.20;15.23;;;;;;;2.37;42.20;96251.03;4938707;29;20175;-79
2022/03/10 00:33:36;;;;;;;23.40;15.03;;;;;;;2.33;41.83;96253.84;4954599;28;20219;-80
2022/03/10 00:36:01;;;;;;;23.97;14.43;;;;;;;2.40;41.61;96256.00;4938504;29;20727;-79
2022/03/10 00:38:27;;;;;;;25.57;14.93;;;;;;;2.42;41.12;96261.06;4922976;29;20197;-80
2022/03/10 00:40:52;;;;;;;28.03;16.07;;;;;;;2.41;41.56;96259.41;4938986;29;20188;-80
2022/03/10 00:43:17;;;;;;;25.17;14.43;;;;;;;2.43;41.54;96263.53;4938057;29;20256;-79
2022/03/10 00:45:43;;;;;;;29.70;15.87;;;;;;;2.48;41.60;96265.88;4938235;28;20211;-80
2022/03/10 00:48:09;;;;;;;27.83;14.13;;;;;;;2.53;41.82;96259.56;4921668;29;20178;-79
2022/03/10 00:50:34;;;;;;;27.20;15.63;;;;;;;2.50;41.68;96261.47;4923111;29;20187;-80
2022/03/10 00:53:00;;;;;;;26.80;14.77;;;;;;;2.41;42.47;96265.34;4937434;29;20197;-80
2022/03/10 00:55:25;;;;;;;29.57;15.87;;;;;;;2.42;43.00;96264.44;4937569;29;20177;-79
2022/03/10 00:57:50;;;;;;;29.70;15.40;;;;;;;2.44;42.76;96261.78;4920371;29;20197;-78
2022/03/10 01:00:16;;;;;;;28.10;16.43;;;;;;;2.41;43.33;96262.78;4920210;29;20189;-79
2022/03/10 01:02:42;;;;;;;29.43;15.93;;;;;;;2.45;43.41;96255.75;4935223;29;20191;-79
2022/03/10 01:05:08;;;;;;;33.50;15.93;;;;;;;2.47;43.49;96262.47;4936103;29;20203;-79
2022/03/10 01:07:34;;;;;;;30.03;16.80;;;;;;;2.43;43.41;96258.41;4952114;28;20223;-78
2022/03/10 01:09:59;;;;;;;25.23;14.50;;;;;;;2.37;43.88;96255.31;4940097;29;20213;-78
2022/03/10 01:12:25;;;;;;;29.23;16.47;;;;;;;2.48;43.58;96258.16;4923494;28;20189;-78
2022/03/10 01:14:50;;;;;;;29.57;15.87;;;;;;;2.52;43.44;96255.34;4923870;29;20199;-78
2022/03/10 01:17:15;;;;;;;25.83;14.60;;;;;;;2.53;43.31;96248.47;4939389;29;20214;-79
2022/03/10 01:19:41;;;;;;;25.23;15.60;;;;;;;2.41;43.34;96247.41;4924032;29;20509;-79
2022/03/10 01:22:07;;;;;;;29.10;15.50;;;;;;;2.38;43.58;96246.72;4939037;29;20192;-79
2022/03/10 01:24:33;;;;;;;26.93;15.70;;;;;;;2.30;43.85;96247.16;4930231;29;20213;-78
2022/03/10 01:26:58;;;;;;;24.73;15.07;;;;;;;2.22;43.84;96249.28;4941176;29;20198;-79
2022/03/10 01:29:24;;;;;;;26.40;14.60;;;;;;;2.28;43.55;96252.31;4937597;29;20194;-80
2022/03/10 01:31:49;;;;;;;23.53;14.60;;;;;;;2.26;43.78;96250.75;4936462;29;20185;-79
2022/03/10 01:34:14;;;;;;;26.77;15.13;;;;;;;2.31;43.58;96245.41;4936847;29;20281;-80
2022/03/10 01:36:40;;;;;;;24.40;13.83;;;;;;;2.28;43.75;96246.38;4948775;29;20319;-79
2022/03/10 01:39:06;;;;;;;23.40;13.93;;;;;;;2.37;43.61;96252.75;4922501;29;20568;-79
2022/03/10 01:41:34;;;;;;;22.10;13.47;;;;;;;2.35;43.96;96250.28;4935948;29;20280;-78
2022/03/10 01:44:02;;;;;;;23.50;13.40;;;;;;;2.45;43.75;96254.00;4904939;29;20277;-79
2022/03/10 01:46:28;;;;;;;26.20;14.03;;;;;;;2.48;43.60;96253.03;4920715;29;20273;-78
2022/03/10 01:48:55;;;;;;;26.47;14.67;;;;;;;2.43;43.52;96249.88;4903529;29;20295;-80
2022/03/10 01:51:20;;;;;;;27.10;13.93;;;;;;;2.38;44.06;96247.53;4937089;29;20199;-79
2022/03/10 01:53:48;;;;;;;25.40;14.33;;;;;;;2.46;43.75;96245.41;4936457;29;20213;-80
2022/03/10 01:56:14;;;;;;;22.27;13.23;;;;;;;2.50;43.80;96235.84;4939764;29;20623;-79
2022/03/10 01:58:40;;;;;;;22.70;12.93;;;;;;;2.60;43.77;96233.59;4939642;29;20185;-80
2022/03/10 02:01:05;;;;;;;21.30;13.07;;;;;;;2.48;44.05;96243.63;4939126;29;20601;-80
2022/03/10 02:03:30;;;;;;;18.37;11.50;;;;;;;2.61;43.85;96237.81;4956172;29;20681;-78
2022/03/10 02:05:56;;;;;;;18.87;12.40;;;;;;;2.59;43.81;96240.47;4938697;29;20193;-80
2022/03/10 02:11:06;;;;;;;22.70;12.77;;;;;;;2.45;44.10;96237.81;4941930;29;20725;-79
2022/03/10 02:13:31;;;;;;;20.90;12.20;;;;;;;2.44;44.15;96242.09;4938903;29;20291;-80
2022/03/10 02:18:41;;;;;;;20.83;12.70;;;;;;;2.49;44.27;96229.88;4941512;28;20267;-79
2022/03/10 02:21:06;;;;;;;25.37;14.17;;;;;;;2.48;43.83;96225.66;4938810;29;20590;-79
2022/03/10 02:23:31;;;;;;;25.60;13.73;;;;;;;2.53;43.64;96221.09;4938990;29;20197;-80
2022/03/10 02:25:59;;;;;;;24.90;14.23;;;;;;;2.52;44.07;96222.03;4939062;29;20804;-81
2022/03/10 02:28:25;;;;;;;25.60;15.80;;;;;;;2.56;44.13;96222.66;4939864;29;20619;-80
2022/03/10 02:30:51;;;;;;;30.17;15.77;;;;;;;2.43;44.32;96227.63;4938819;29;20241;-79
2022/03/10 02:33:16;;;;;;;29.70;15.90;;;;;;;2.31;44.78;96223.16;4954191;28;20280;-79
2022/03/10 02:35:41;;;;;;;26.50;15.57;;;;;;;2.32;44.70;96218.88;4938871;29;20174;-79
2022/03/10 02:38:07;;;;;;;26.50;15.70;;;;;;;2.35;45.10;96222.09;4938894;29;20230;-79
2022/03/10 02:40:32;;;;;;;29.07;15.77;;;;;;;2.30;44.70;96221.53;4938867;29;20646;-78
2022/03/10 02:42:58;;;;;;;25.13;13.70;;;;;;;2.26;44.82;96223.41;4938351;29;20264;-80
2022/03/10 02:45:23;;;;;;;27.03;14.83;;;;;;;2.19;45.20;96227.19;4938336;28;20209;-78
2022/03/10 02:47:49;;;;;;;21.53;13.10;;;;;;;2.16;45.10;96227.34;4937408;29;20195;-79
2022/03/10 02:50:14;;;;;;;20.13;12.70;;;;;;;2.06;45.37;96233.88;4939052;29;20191;-80
2022/03/10 02:52:39;;;;;;;21.57;13.27;;;;;;;2.03;45.45;96226.31;4937999;29;20235;-80
2022/03/10 02:55:06;;;;;;;19.23;12.10;;;;;;;1.97;45.13;96232.59;4938860;29;20202;-79
2022/03/10 02:57:32;;;;;;;21.90;12.47;;;;;;;1.94;45.39;96231.91;4922408;29;20700;-79
2022/03/10 02:59:59;;;;;;;26.37;13.70;;;;;;;1.89;45.30;96233.91;4938883;29;20205;-79
2022/03/10 03:02:24;;;;;;;21.17;12.40;;;;;;;1.99;45.21;96238.47;4938100;29;20214;-79
2022/03/10 03:04:49;;;;;;;18.67;12.53;;;;;;;1.97;45.49;96227.47;4939031;29;20664;-79
2022/03/10 03:07:15;;;;;;;21.30;12.40;;;;;;;1.96;45.49;96230.13;4938626;29;20197;-79
2022/03/10 03:09:40;;;;;;;18.13;12.47;;;;;;;1.93;45.68;96228.53;4938427;29;20193;-80
2022/03/10 03:12:05;;;;;;;19.23;12.27;;;;;;;1.87;45.34;96233.97;4938825;29;20189;-79
2022/03/10 03:14:31;;;;;;;18.03;11.53;;;;;;;1.83;45.67;96239.31;4939046;29;20216;-80
2022/03/10 03:16:56;;;;;;;19.40;11.97;;;;;;;1.75;45.76;96241.44;4956102;29;20189;-80
2022/03/10 03:19:22;;;;;;;16.40;10.53;;;;;;;1.77;45.99;96242.19;4939121;29;20189;-80
2022/03/10 03:21:47;;;;;;;16.63;10.07;;;;;;;1.83;45.75;96237.59;4922990;29;20276;-79
2022/03/10 03:24:12;;;;;;;16.03;10.67;;;;;;;1.85;45.33;96242.63;4939010;29;20290;-82
2022/03/10 03:26:38;;;;;;;16.93;9.57;;;;;;;1.98;45.61;96239.38;4956589;28;20185;-82
2022/03/10 03:29:03;;;;;;;14.13;8.67;;;;;;;2.05;45.42;96239.06;4939240;29;20191;-80
2022/03/10 03:31:28;;;;;;;16.23;9.80;;;;;;;2.08;45.07;96233.78;4937772;29;20188;-82
2022/03/10 03:33:55;;;;;;;17.63;9.73;;;;;;;2.07;45.07;96243.22;4938364;29;20233;-79
2022/03/10 03:36:20;;;;;;;13.93;9.03;;;;;;;2.03;45.45;96243.44;4938319;29;20197;-79
2022/03/10 03:38:45;;;;;;;13.10;8.70;;;;;;;2.03;44.81;96243.44;4938482;29;20199;-82
2022/03/10 03:41:11;;;;;;;16.27;9.03;;;;;;;1.99;45.11;96245.34;4937852;29;20297;-79
2022/03/10 03:43:36;;;;;;;18.70;10.17;;;;;;;2.07;45.12;96245.75;4938361;28;20208;-79
2022/03/10 03:46:01;;;;;;;15.73;10.77;;;;;;;2.08;45.06;96249.97;4944620;29;20220;-79
2022/03/10 03:48:27;;;;;;;18.13;10.33;;;;;;;2.01;45.09;96247.81;4942578;29;20192;-79
2022/03/10 03:50:52;;;;;;;16.27;10.00;;;;;;;1.97;45.55;96253.09;4957701;28;20525;-80
2022/03/10 03:53:18;;;;;;;17.13;9.87;;;;;;;1.81;45.75;96259.91;4938206;29;20204;-79
2022/03/10 03:55:43;;;;;;;18.03;11.10;;;;;;;1.73;46.05;96267.13;4938686;29;20177;-82
2022/03/10 03:58:09;;;;;;;17.77;10.50;;;;;;;1.73;45.61;96266.31;4938255;29;20228;-81
2022/03/10 04:00:36;;;;;;;21.63;11.30;;;;;;;1.56;46.29;96267.97;4922483;29;20220;-81
2022/03/10 04:03:09;;;;;;;15.37;10.43;;;;;;;1.41;46.79;96264.44;4921932;29;20201;-81
2022/03/10 04:05:34;;;;;;;18.83;11.17;;;;;;;1.32;47.32;96267.41;4938280;29;20209;-80
2022/03/10 04:08:00;;;;;;;17.77;10.77;;;;;;;1.30;47.38;96274.34;4937740;29;20184;-79
2022/03/10 04:10:25;;;;;;;17.73;10.90;;;;;;;1.39;47.24;96276.47;4937224;29;20180;-77
2022/03/10 04:12:50;;;;;;;16.77;10.23;;;;;;;1.41;46.95;96267.00;4936659;29;20205;-80
2022/03/10 04:15:15;;;;;;;15.07;10.37;;;;;;;1.37;47.41;96278.28;4937037;29;20192;-80
2022/03/10 04:17:42;;;;;;;19.87;10.73;;;;;;;1.37;47.25;96269.75;4936967;29;20185;-80
2022/03/10 04:20:12;;;;;;;16.93;10.40;;;;;;;1.28;47.77;96267.66;4937957;29;20344;-80
2022/03/10 04:22:37;;;;;;;15.10;9.70;;;;;;;1.46;47.24;96265.94;4922078;29;20219;-80
2022/03/10 04:25:03;;;;;;;18.77;10.97;;;;;;;1.55;46.65;96268.03;4937462;28;20240;-79
2022/03/10 04:27:29;;;;;;;17.20;10.03;;;;;;;1.54;46.94;96274.06;4953132;29;20212;-80
2022/03/10 04:29:54;;;;;;;20.43;10.27;;;;;;;1.46;46.97;96271.06;4937428;29;20187;-81
2022/03/10 04:32:19;;;;;;;16.70;9.80;;;;;;;1.31;47.22;96270.88;4936418;29;20272;-80
2022/03/10 04:34:45;;;;;;;21.83;12.07;;;;;;;1.33;47.26;96274.22;4937288;29;20213;-80
2022/03/10 04:37:10;;;;;;;23.13;12.50;;;;;;;1.28;47.20;96268.47;4936998;29;20217;-80
2022/03/10 04:39:35;;;;;;;18.37;11.23;;;;;;;1.26;47.67;96274.56;4936432;28;20720;-79
2022/03/10 04:42:00;;;;;;;23.13;12.33;;;;;;;1.33;47.62;96270.84;4936686;29;20192;-81
2022/03/10 04:44:26;;;;;;;22.13;12.47;;;;;;;1.41;47.26;96261.88;4940104;29;20259;-80
2022/03/10 04:46:51;;;;;;;20.23;12.00;;;;;;;1.46;47.10;96256.53;4940684;29;20596;-80
2022/03/10 04:49:16;;;;;;;24.03;12.60;;;;;;;1.46;47.05;96260.81;4939202;28;20196;-79
2022/03/10 04:51:41;;;;;;;21.83;12.87;;;;;;;1.48;46.89;96259.81;4939941;29;20191;-79
2022/03/10 04:54:07;;;;;;;24.73;14.07;;;;;;;1.55;46.61;96255.25;4940008;29;20580;-79
2022/03/10 04:56:33;;;;;;;23.17;13.33;;;;;;;1.58;46.62;96260.19;4939987;29;20193;-79
2022/03/10 04:58:58;;;;;;;25.40;13.93;;;;;;;1.55;46.89;96260.34;4940065;29;20179;-79
2022/03/10 05:01:24;;;;;;;22.67;13.43;;;;;;;1.58;46.49;96261.03;4939759;29;20185;-79
2022/03/10 05:03:50;;;;;;;24.67;13.37;;;;;;;1.55;46.56;96260.34;4939886;28;20306;-79
2022/03/10 05:06:15;;;;;;;27.63;13.87;;;;;;;1.50;46.64;96257.19;4957293;28;20222;-79
2022/03/10 05:08:41;;;;;;;23.70;13.70;;;;;;;1.39;47.14;96257.72;4939576;29;20197;-80
2022/03/10 05:11:06;;;;;;;24.53;14.33;;;;;;;1.37;46.87;96254.41;4923334;29;20193;-80
2022/03/10 05:13:31;;;;;;;26.03;13.83;;;;;;;1.35;46.73;96246.81;4939774;29;20747;-79
2022/03/10 05:15:57;;;;;;;25.37;14.00;;;;;;;1.30;47.32;96253.03;4939764;29;20183;-79
2022/03/10 05:18:22;;;;;;;24.00;14.10;;;;;;;1.27;47.13;96256.59;4924241;29;20263;-80
2022/03/10 05:20:48;;;;;;;24.47;13.97;;;;;;;1.31;47.14;96250.41;4939850;28;20555;-78
2022/03/10 05:23:13;;;;;;;25.23;14.30;;;;;;;1.27;47.28;96248.91;4939706;29;20228;-78
2022/03/10 05:25:39;;;;;;;25.07;14.37;;;;;;;1.14;47.55;96245.28;4939859;29;20217;-80
2022/03/10 05:28:11;;;;;;;26.27;13.87;;;;;;;1.08;47.83;96248.97;4939439;29;20610;-78
2022/03/10 05:30:36;;;;;;;25.67;15.07;;;;;;;0.97;48.39;96250.34;4940094;29;20687;-78
2022/03/10 05:33:02;;;;;;;27.33;13.73;;;;;;;0.87;48.50;96257.63;4954886;29;20204;-78
2022/03/10 05:35:29;;;;;;;27.67;15.17;;;;;;;0.86;48.28;96250.88;4924089;29;20641;-79
2022/03/10 05:37:55;;;;;;;23.80;14.43;;;;;;;0.84;48.71;96252.66;4940668;29;20180;-78
2022/03/10 05:40:21;;;;;;;24.40;14.13;;;;;;;0.82;48.86;96257.88;4938700;29;20187;-78
2022/03/10 05:42:47;;;;;;;26.50;14.57;;;;;;;0.71;49.09;96254.97;4923179;29;20216;-79
2022/03/10 05:45:14;;;;;;;26.20;14.23;;;;;;;0.64;49.07;96256.16;4939903;29;20208;-80
2022/03/10 05:47:41;;;;;;;23.97;13.63;;;;;;;0.70;49.22;96260.13;4940294;29;20181;-79
2022/03/10 05:50:07;;;;;;;23.33;13.77;;;;;;;0.64;49.44;96257.88;4924070;28;20259;-80
2022/03/10 05:52:33;;;;;;;26.13;14.77;;;;;;;0.61;49.43;96263.13;4955534;28;20185;-78
2022/03/10 05:54:58;;;;;;;27.10;14.93;;;;;;;0.62;49.63;96270.75;4955765;28;20259;-78
2022/03/10 05:57:23;;;;;;;26.73;15.47;;;;;;;0.71;49.30;96272.88;4939409;29;20204;-78
2022/03/10 05:59:49;;;;;;;28.03;14.23;;;;;;;0.72;49.40;96271.97;4946116;29;20680;-78
2022/03/10 06:02:16;;;;;;;22.60;13.67;;;;;;;0.74;49.11;96271.91;4928318;29;20189;-79
2022/03/10 06:04:41;;;;;;;21.40;13.27;;;;;;;0.69;49.44;96266.97;4940529;29;20245;-80
2022/03/10 06:07:06;;;;;;;24.70;13.47;;;;;;;0.68;49.75;96265.31;4924294;29;20214;-80
2022/03/10 06:09:31;;;;;;;22.37;12.63;;;;;;;0.71;49.30;96257.53;4924239;29;20185;-81
2022/03/10 06:11:57;;;;;;;25.70;12.80;;;;;;;0.76;49.40;96264.97;4923617;29;20182;-81
2022/03/10 06:14:22;;;;;;;19.27;13.23;;;;;;;0.83;49.26;96256.97;4924239;29;20241;-81
2022/03/10 06:16:47;;;;;;;23.43;13.57;;;;;;;0.93;48.98;96259.09;4940845;29;20552;-81
2022/03/10 06:19:13;;;;;;;21.97;12.50;;;;;;;1.01;48.36;96269.78;4921425;29;20190;-79
2022/03/10 06:21:38;;;;;;;18.93;11.47;;;;;;;1.09;48.49;96268.53;4936628;29;20185;-79
2022/03/10 06:24:04;;;;;;;17.87;11.53;;;;;;;1.23;48.25;96272.16;4940681;29;20201;-79
2022/03/10 06:26:30;;;;;;;26.33;14.40;;;;;;;1.27;48.29;96277.06;4940727;29;20215;-80
2022/03/10 06:28:55;;;;;;;23.03;13.43;;;;;;;1.32;47.77;96276.81;4956092;29;20255;-79
2022/03/10 06:31:22;;;;;;;21.67;12.57;;;;;;;1.44;47.76;96283.94;4921589;29;20188;-80
2022/03/10 06:33:47;;;;;;;20.30;11.90;;;;;;;1.52;47.41;96281.00;4944815;28;20656;-80
2022/03/10 06:36:13;;;;;;;18.77;11.70;;;;;;;1.61;47.41;96280.56;4942918;28;20191;-80
2022/03/10 06:38:38;;;;;;;17.03;10.87;;;;;;;1.63;47.54;96278.75;4967266;28;20236;-79
2022/03/10 06:41:04;;;;;;;20.27;11.53;;;;;;;1.75;47.12;96277.28;4911940;29;20192;-79
2022/03/10 06:43:29;;;;;;;20.40;11.20;;;;;;;1.86;47.24;96272.50;4909109;29;20613;-78
2022/03/10 06:45:54;;;;;;;17.43;10.70;;;;;;;1.94;46.88;96278.03;4923355;29;20533;-78
2022/03/10 06:48:20;;;;;;;17.73;10.17;;;;;;;2.06;46.54;96271.47;4924171;28;20220;-78
2022/03/10 06:50:45;;;;;;;17.80;10.30;;;;;;;2.10;46.59;96272.97;4945998;29;20262;-78
2022/03/10 06:53:11;;;;;;;17.53;10.67;;;;;;;2.17;46.46;96289.69;4905059;29;20587;-79
2022/03/10 06:55:37;;;;;;;16.03;10.20;;;;;;;2.27;46.03;96280.59;4920860;29;20189;-78
2022/03/10 06:58:02;;;;;;;17.83;10.47;;;;;;;2.32;45.91;96283.78;4944986;29;20196;-81
2022/03/10 07:00:27;;;;;;;16.90;10.17;;;;;;;2.39;45.56;96280.00;4938043;29;20189;-78
2022/03/10 07:02:53;;;;;;;15.40;9.83;;;;;;;2.48;45.63;96289.75;4925043;29;20203;-80
2022/03/10 07:05:18;;;;;;;18.37;8.97;;;;;;;2.62;45.25;96290.75;4952201;28;20209;-80
2022/03/10 07:07:44;;;;;;;17.47;8.60;;;;;;;2.67;45.09;96294.75;4912950;29;20184;-79
2022/03/10 07:10:10;;;;;;;18.40;10.10;;;;;;;2.76;45.39;96299.38;4935883;29;20190;-80
2022/03/10 07:12:36;;;;;;;13.53;8.33;;;;;;;2.86;45.02;96297.16;4937940;29;20664;-80
2022/03/10 07:15:06;;;;;;;13.57;8.63;;;;;;;2.92;44.38;96308.84;4953386;28;20204;-80
2022/03/10 07:17:31;;;;;;;13.90;8.23;;;;;;;2.96;44.46;96312.88;4943718;28;20180;-80
2022/03/10 07:19:56;;;;;;;14.30;9.00;;;;;;;3.04;44.64;96311.56;4944136;29;20189;-80
2022/03/10 07:22:22;;;;;;;12.67;8.70;;;;;;;3.14;44.52;96311.88;4924493;29;20670;-80
2022/03/10 07:24:47;;;;;;;15.30;8.63;;;;;;;3.20;44.25;96318.44;4907579;29;20211;-80
2022/03/10 07:27:12;;;;;;;13.27;8.63;;;;;;;3.25;44.48;96317.25;4931288;29;20189;-80
2022/03/10 07:29:38;;;;;;;12.37;8.13;;;;;;;3.38;43.74;96318.25;4915311;29;20205;-79
2022/03/10 07:32:03;;;;;;;14.80;8.47;;;;;;;3.54;43.73;96315.66;4927049;29;20182;-80
2022/03/10 07:34:29;;;;;;;13.93;7.47;;;;;;;3.64;43.17;96319.34;4936718;29;20197;-80
2022/03/10 07:36:54;;;;;;;11.53;6.63;;;;;;;3.76;42.90;96327.28;4924185;29;20275;-82
2022/03/10 07:39:19;;;;;;;12.17;7.63;;;;;;;3.81;43.44;96315.00;4913719;29;20184;-82
2022/03/10 07:41:45;;;;;;;10.47;6.27;;;;;;;3.98;42.70;96322.56;4928893;28;20201;-82
2022/03/10 07:44:10;;;;;;;10.27;6.40;;;;;;;4.11;42.30;96320.94;4912339;28;20600;-82
2022/03/10 07:46:35;;;;;;;12.53;7.23;;;;;;;4.10;42.10;96314.16;4925618;29;20229;-82
2022/03/10 07:49:01;;;;;;;13.40;6.70;;;;;;;4.18;42.14;96314.53;4911292;29;20845;-82
2022/03/10 07:51:26;;;;;;;14.53;6.77;;;;;;;4.28;42.34;96321.69;4920463;29;20185;-81
2022/03/10 07:53:51;;;;;;;10.47;7.00;;;;;;;4.34;42.17;96309.31;4934173;29;20202;-81
2022/03/10 07:56:17;;;;;;;9.30;6.33;;;;;;;4.35;42.36;96310.13;4928315;29;20182;-81
2022/03/10 07:58:42;;;;;;;9.17;6.20;;;;;;;4.48;41.92;96316.19;4937433;29;20185;-82
2022/03/10 08:01:08;;;;;;;11.43;7.57;;;;;;;4.52;41.72;96315.09;4933804;29;20189;-83
2022/03/10 08:03:35;;;;;;;13.13;7.47;;;;;;;4.58;41.66;96319.84;4927919;29;20955;-83
2022/03/10 08:06:01;;;;;;;10.37;6.33;;;;;;;4.75;41.63;96311.13;4923316;29;20280;-82
2022/03/10 08:08:26;;;;;;;13.33;6.77;;;;;;;4.82;41.20;96315.81;4917036;29;20598;-82
2022/03/10 08:10:51;;;;;;;11.13;6.50;;;;;;;4.98;41.29;96320.84;4907993;29;20620;-83
2022/03/10 08:13:18;;;;;;;9.17;5.90;;;;;;;5.06;40.89;96315.22;4916722;29;20247;-82
2022/03/10 08:15:44;;;;;;;11.60;6.63;;;;;;;5.15;41.37;96324.13;4916940;28;20686;-82
2022/03/10 08:18:09;;;;;;;8.93;6.57;;;;;;;5.22;40.98;96322.84;4912923;29;20200;-82
2022/03/10 08:20:35;;;;;;;8.73;6.33;;;;;;;5.32;41.18;96318.75;4905993;29;20178;-81
2022/03/10 08:23:00;;;;;;;8.27;6.47;;;;;;;5.36;41.32;96326.16;4908228;29;20202;-82
2022/03/10 08:25:25;;;;;;;12.07;6.97;;;;;;;5.40;40.87;96317.34;4915529;29;20211;-78
2022/03/10 08:27:51;;;;;;;12.70;6.67;;;;;;;5.52;40.72;96314.91;4947065;28;20185;-79
2022/03/10 08:30:16;;;;;;;11.57;6.70;;;;;;;5.53;41.51;96319.13;4911563;29;20192;-81
2022/03/10 08:32:45;;;;;;;10.93;6.33;;;;;;;5.73;40.44;96317.84;4922067;29;20232;-79
2022/03/10 08:35:11;;;;;;;8.63;5.67;;;;;;;5.77;40.32;96309.00;4930745;29;20229;-79
2022/03/10 08:37:36;;;;;;;9.07;6.37;;;;;;;5.85;40.39;96312.72;4914879;29;20189;-80
2022/03/10 08:40:02;;;;;;;9.93;6.70;;;;;;;5.93;40.33;96307.13;4923614;29;20185;-80
2022/03/10 08:42:27;;;;;;;10.03;7.20;;;;;;;5.96;41.35;96309.47;4940160;29;20193;-79
2022/03/10 08:44:53;;;;;;;13.57;7.43;;;;;;;6.01;41.07;96307.44;4922063;29;20211;-81
2022/03/10 08:47:18;;;;;;;11.50;7.87;;;;;;;6.06;40.67;96309.69;4946712;28;20204;-79
2022/03/10 08:49:43;;;;;;;14.17;8.87;;;;;;;6.17;40.62;96302.06;4914646;29;20230;-78
2022/03/10 08:52:09;;;;;;;12.70;7.73;;;;;;;6.23;40.89;96301.66;4935096;29;20270;-78
2022/03/10 08:54:34;;;;;;;12.80;8.63;;;;;;;6.26;40.98;96301.44;4910215;29;20205;-79
2022/03/10 08:56:59;;;;;;;11.63;7.30;;;;;;;6.39;40.54;96291.16;4930845;29;20652;-79
2022/03/10 08:59:24;;;;;;;13.10;8.73;;;;;;;6.52;40.70;96299.69;4912885;29;20194;-80
2022/03/10 09:01:50;;;;;;;12.10;7.40;;;;;;;6.58;40.63;96291.53;4932452;28;20200;-81
2022/03/10 09:04:16;;;;;;;11.57;7.23;;;;;;;6.69;40.41;96293.38;4925038;29;20215;-79
2022/03/10 09:06:41;;;;;;;10.37;6.80;;;;;;;6.78;40.84;96297.91;4936928;29;20736;-78
2022/03/10 09:09:07;;;;;;;9.97;7.53;;;;;;;6.92;39.54;96294.38;4915335;29;20209;-80
2022/03/10 09:11:32;;;;;;;8.87;6.33;;;;;;;7.01;39.20;96291.16;4950526;29;20192;-80
2022/03/10 09:13:59;;;;;;;11.67;6.83;;;;;;;7.05;39.30;96290.81;4930844;29;20212;-78
2022/03/10 09:16:24;;;;;;;9.03;7.43;;;;;;;7.18;38.91;96287.41;4934082;29;20287;-80
2022/03/10 09:18:50;;;;;;;12.03;8.60;;;;;;;7.29;39.25;96287.44;4923681;29;20221;-81
2022/03/10 09:21:16;;;;;;;12.83;8.63;;;;;;;7.28;38.66;96291.78;4909599;29;20193;-78
2022/03/10 09:23:41;;;;;;;10.77;7.47;;;;;;;7.34;39.02;96285.38;4911201;29;20620;-79
2022/03/10 09:26:07;;;;;;;12.17;7.10;;;;;;;7.39;38.79;96291.03;4932462;29;20256;-78
2022/03/10 09:28:32;;;;;;;12.33;8.33;;;;;;;7.43;38.71;96289.88;4905616;29;20240;-79
2022/03/10 09:30:57;;;;;;;10.63;7.50;;;;;;;7.55;38.65;96299.31;4915744;28;20197;-84
2022/03/10 09:33:23;;;;;;;10.57;7.97;;;;;;;7.60;38.97;96293.84;4920052;29;20209;-80
2022/03/10 09:35:49;;;;;;;15.57;7.50;;;;;;;7.66;37.72;96285.63;4920679;29;20666;-80
2022/03/10 09:38:14;;;;;;;12.43;7.73;;;;;;;7.76;38.10;96289.19;4920421;29;20200;-80
2022/03/10 09:40:39;;;;;;;9.87;7.20;;;;;;;7.78;38.17;96282.16;4940276;29;20196;-81
2022/03/10 09:43:05;;;;;;;14.23;7.40;;;;;;;7.83;38.25;96289.56;4934140;29;20300;-78
2022/03/10 09:45:30;;;;;;;10.87;6.47;;;;;;;7.84;37.94;96284.28;4938142;29;20217;-79
2022/03/10 09:47:56;;;;;;;12.07;6.07;;;;;;;7.91;38.07;96289.81;4946981;29;20220;-79
2022/03/10 09:50:21;;;;;;;8.97;5.57;;;;;;;8.02;37.68;96287.25;4924373;29;20592;-78
2022/03/10 09:52:47;;;;;;;7.83;5.13;;;;;;;7.97;36.64;96285.97;4953883;29;20213;-79
2022/03/10 09:55:17;;;;;;;5.10;4.60;;;;;;;8.08;37.28;96286.81;4944204;29;20178;-79
2022/03/10 09:57:44;;;;;;;5.97;4.83;;;;;;;8.15;36.85;96282.84;4915568;28;20189;-77
2022/03/10 10:00:13;;;;;;;6.00;4.83;;;;;;;8.18;36.85;96286.94;4929799;28;20643;-80
2022/03/10 10:02:40;;;;;;;8.17;5.13;;;;;;;8.28;36.88;96279.31;4907560;29;20182;-80
2022/03/10 10:05:21;;;;;;;8.50;5.17;;;;;;;8.33;36.33;96283.22;4922287;29;20249;-79
2022/03/10 10:08:04;;;;;;;9.30;5.33;;;;;;;8.41;36.67;96280.09;4923216;29;20673;-80
2022/03/10 10:10:30;;;;;;;7.63;5.47;;;;;;;8.50;36.74;96276.78;4935699;28;20193;-79
2022/03/10 10:12:56;;;;;;;10.00;5.70;;;;;;;8.60;36.71;96274.31;4924610;29;20624;-80
2022/03/10 10:15:21;;;;;;;8.23;5.83;;;;;;;8.66;36.86;96272.09;4928704;29;20197;-79
2022/03/10 10:17:55;;;;;;;10.37;5.83;;;;;;;8.63;36.74;96266.31;4929327;29;20222;-79
2022/03/10 10:20:20;;;;;;;8.57;6.40;;;;;;;8.86;36.84;96267.97;4920062;29;20192;-79
2022/03/10 10:22:48;;;;;;;8.73;5.40;;;;;;;8.89;36.11;96264.28;4923615;29;20177;-79
2022/03/10 10:25:22;;;;;;;13.67;5.97;;;;;;;8.97;35.22;96267.94;4931014;29;20627;-78
2022/03/10 10:27:47;;;;;;;8.93;5.37;;;;;;;8.96;35.71;96265.47;4947397;28;20186;-78
2022/03/10 10:30:13;;;;;;;7.43;5.20;;;;;;;9.00;35.61;96261.69;4909378;29;20182;-78
2022/03/10 10:32:49;;;;;;;8.47;5.50;;;;;;;8.99;35.40;96262.63;4918964;29;20181;-78
2022/03/10 10:35:20;;;;;;;7.80;5.93;;;;;;;9.06;35.33;96261.22;4911918;28;20181;-78
2022/03/10 10:37:49;;;;;;;6.97;5.70;;;;;;;9.06;35.50;96261.22;4933153;29;20248;-78
2022/03/10 10:40:20;;;;;;;13.10;5.80;;;;;;;9.14;35.42;96253.66;4923106;29;20248;-79
2022/03/10 10:42:46;;;;;;;7.83;4.67;;;;;;;9.15;35.06;96247.53;4940452;28;20182;-78
2022/03/10 10:45:28;;;;;;;7.30;4.90;;;;;;;9.31;35.01;96249.72;4926387;29;20228;-78
2022/03/10 10:48:08;;;;;;;7.40;5.33;;;;;;;9.38;34.84;96250.06;4931485;29;20185;-79
2022/03/10 10:50:43;;;;;;;5.77;4.30;;;;;;;9.44;34.06;96242.59;4935785;29;20185;-78
2022/03/10 10:53:29;;;;;;;5.57;3.90;;;;;;;9.61;33.77;96249.84;4953245;28;20235;-79
2022/03/10 10:55:56;;;;;;;5.00;3.37;;;;;;;9.75;33.11;96245.31;4938356;29;20203;-79
2022/03/10 10:58:24;;;;;;;5.10;3.43;;;;;;;9.79;32.60;96254.47;4939438;29;20186;-79
2022/03/10 11:00:50;;;;;;;4.13;3.27;;;;;;;9.71;32.35;96249.09;4948219;29;20653;-79
2022/03/10 11:03:23;;;;;;;6.70;3.73;;;;;;;9.74;32.53;96248.84;4947889;28;20212;-78
2022/03/10 11:05:48;;;;;;;4.90;3.77;;;;;;;9.82;32.72;96249.06;4962322;28;20220;-80
2022/03/10 11:08:18;;;;;;;7.00;2.93;;;;;;;9.78;31.97;96243.28;4950914;28;20188;-81
2022/03/10 11:10:43;;;;;;;5.60;3.20;;;;;;;9.83;31.59;96241.13;4956004;28;20208;-81
2022/03/10 11:13:08;;;;;;;5.23;3.20;;;;;;;9.85;31.93;96234.06;4931348;28;20244;-79
2022/03/10 11:15:34;;;;;;;5.00;2.73;;;;;;;9.93;31.14;96231.66;4944221;29;20182;-79
2022/03/10 11:18:00;;;;;;;10.77;3.37;;;;;;;10.02;31.03;96224.06;4954363;28;20180;-79
2022/03/10 11:20:26;;;;;;;4.33;3.00;;;;;;;10.00;32.03;96233.75;4941934;29;20215;-78
2022/03/10 11:23:14;;;;;;;4.63;3.20;;;;;;;10.05;30.92;96218.59;4953611;29;20249;-78
2022/03/10 11:25:52;;;;;;;5.53;3.00;;;;;;;10.03;30.82;96223.91;4953209;28;20283;-78
2022/03/10 11:28:24;;;;;;;3.20;2.80;;;;;;;10.04;30.84;96217.78;4944470;28;20181;-78
2022/03/10 11:30:51;;;;;;;3.93;2.60;;;;;;;10.21;30.92;96218.97;4970314;28;20185;-78